createdAt,value
2022-10-08T00:04:04.728Z,65.11
2022-10-08T00:09:08.778Z,66.00
2022-10-08T00:14:12.941Z,66.31
2022-10-08T00:19:17.129Z,66.29
2022-10-08T00:24:21.233Z,66.49
2022-10-08T00:29:25.422Z,66.49
2022-10-08T00:34:28.221Z,66.38
2022-10-08T00:39:30.966Z,66.67
2022-10-08T00:44:54.894Z,66.76
2022-10-08T00:50:00.436Z,67.33
2022-10-08T00:55:06.330Z,67.36
2022-10-08T01:00:14.975Z,67.83
2022-10-08T01:05:20.675Z,68.72
2022-10-08T01:10:33.348Z,68.70
2022-10-08T01:15:43.435Z,68.59
2022-10-08T01:20:53.204Z,68.00
2022-10-08T01:26:03.133Z,67.60
2022-10-08T01:31:13.481Z,68.01
2022-10-08T01:36:18.595Z,68.60
2022-10-08T01:41:25.397Z,68.31
2022-10-08T01:46:31.724Z,67.84
2022-10-08T01:51:39.006Z,69.15
2022-10-08T01:56:44.412Z,68.41
2022-10-08T02:01:57.422Z,68.03
2022-10-08T02:07:02.796Z,68.47
2022-10-08T02:12:07.120Z,68.16
2022-10-08T02:17:22.483Z,68.48
2022-10-08T02:22:30.284Z,67.90
2022-10-08T02:27:46.490Z,68.91
2022-10-08T02:32:55.926Z,68.65
2022-10-08T02:38:03.022Z,69.10
2022-10-08T02:43:10.987Z,69.27
2022-10-08T02:48:22.897Z,69.95
2022-10-08T02:53:26.613Z,71.42
2022-10-08T02:58:29.750Z,71.97
2022-10-08T03:03:37.741Z,71.85
2022-10-08T03:08:46.136Z,71.71
2022-10-08T03:13:51.342Z,71.66
2022-10-08T03:18:59.003Z,71.82
2022-10-08T03:24:01.760Z,71.74
2022-10-08T03:29:04.623Z,72.56
2022-10-08T03:34:08.832Z,72.69
2022-10-08T03:39:12.163Z,71.68
2022-10-08T03:44:14.917Z,72.44
2022-10-08T03:49:18.865Z,72.09
2022-10-08T03:54:21.654Z,71.90
2022-10-08T03:59:24.444Z,71.01
2022-10-08T04:04:28.585Z,70.81
2022-10-08T04:09:31.349Z,70.52
2022-10-08T04:14:33.969Z,70.41
2022-10-08T04:19:38.186Z,69.86
2022-10-08T04:24:40.941Z,70.50
2022-10-08T04:29:43.695Z,71.42
2022-10-08T04:34:47.902Z,73.48
2022-10-08T04:39:50.872Z,72.84
2022-10-08T04:44:53.923Z,73.67
2022-10-08T04:49:58.164Z,74.68
2022-10-08T04:55:01.066Z,75.72
2022-10-08T05:00:18.216Z,77.43
2022-10-08T05:05:23.919Z,77.71
2022-10-08T05:10:26.816Z,77.76
2022-10-08T05:15:29.871Z,78.64
2022-10-08T05:20:36.843Z,79.98
2022-10-08T05:25:39.664Z,80.20
2022-10-08T05:30:42.277Z,81.46
2022-10-08T05:35:46.389Z,81.97
2022-10-08T05:40:49.163Z,82.35
2022-10-08T05:45:52.042Z,82.07
2022-10-08T05:50:56.218Z,81.88
2022-10-08T05:56:02.613Z,83.71
2022-10-08T06:01:07.643Z,82.98
2022-10-08T06:06:13.013Z,82.25
2022-10-08T06:11:15.771Z,83.68
2022-10-08T06:16:18.493Z,84.91
2022-10-08T06:21:25.347Z,84.37
2022-10-08T06:26:35.177Z,85.32
2022-10-08T06:31:38.709Z,84.77
2022-10-08T06:36:43.040Z,86.59
2022-10-08T06:41:46.058Z,84.77
2022-10-08T06:46:48.928Z,84.64
2022-10-08T06:51:53.130Z,85.81
2022-10-08T06:56:55.949Z,85.07
2022-10-08T07:01:58.558Z,86.54
2022-10-08T07:07:02.696Z,86.01
2022-10-08T07:12:05.457Z,86.57
2022-10-08T07:17:08.021Z,87.30
2022-10-08T07:22:12.165Z,86.36
2022-10-08T07:27:15.284Z,86.73
2022-10-08T07:32:18.044Z,86.38
2022-10-08T07:37:21.961Z,85.75
2022-10-08T07:42:24.704Z,87.28
2022-10-08T07:47:27.291Z,85.69
2022-10-08T07:52:32.123Z,83.04
2022-10-08T07:57:34.949Z,82.36
2022-10-08T08:02:37.549Z,81.90
2022-10-08T08:07:41.718Z,80.92
2022-10-08T08:12:44.766Z,80.22
2022-10-08T08:17:47.702Z,80.78
2022-10-08T08:22:51.669Z,80.84
2022-10-08T08:27:54.432Z,81.14
2022-10-08T08:32:57.255Z,80.15
2022-10-08T08:38:01.459Z,79.93
2022-10-08T08:43:04.220Z,80.86
2022-10-08T08:48:08.474Z,78.15
2022-10-08T08:53:12.817Z,76.89
2022-10-08T08:58:33.800Z,76.89
2022-10-08T09:03:41.225Z,75.44
2022-10-08T09:08:49.409Z,73.93
2022-10-08T09:13:57.627Z,72.63
2022-10-08T09:19:00.383Z,68.02
2022-10-08T09:24:04.649Z,69.68
2022-10-08T09:29:07.489Z,67.88
2022-10-08T09:34:19.744Z,68.89
2022-10-08T09:39:26.298Z,65.44
2022-10-08T09:44:40.495Z,66.42
2022-10-08T09:49:43.938Z,67.97
2022-10-08T09:54:51.252Z,66.48
2022-10-08T09:59:57.049Z,62.93
2022-10-08T10:05:01.078Z,64.18
2022-10-08T10:10:10.155Z,66.63
2022-10-08T10:15:17.177Z,68.41
2022-10-08T10:20:23.215Z,68.98
2022-10-08T10:25:35.642Z,69.28
2022-10-08T10:30:50.448Z,68.14
2022-10-08T10:35:57.061Z,63.28
2022-10-08T10:41:10.868Z,59.66
2022-10-08T10:46:25.588Z,58.78
2022-10-08T10:51:38.861Z,64.27
2022-10-08T10:56:48.521Z,55.32
2022-10-08T11:02:00.247Z,56.05
2022-10-08T11:07:07.074Z,56.56
2022-10-08T11:12:27.837Z,56.46
2022-10-08T11:17:42.727Z,54.71
2022-10-08T11:22:56.244Z,52.27
2022-10-08T11:28:16.734Z,50.41
2022-10-08T11:33:19.999Z,50.64
2022-10-08T11:38:31.488Z,53.45
2022-10-08T11:43:44.429Z,56.23
2022-10-08T11:48:48.022Z,56.06
2022-10-08T11:54:03.768Z,54.17
2022-10-08T11:59:25.449Z,51.44
2022-10-08T12:04:34.590Z,48.90
2022-10-08T12:10:01.945Z,48.83
2022-10-08T12:15:45.938Z,46.46
2022-10-08T12:21:27.370Z,49.85
2022-10-08T12:26:30.243Z,53.06
2022-10-08T12:31:39.912Z,53.89
2022-10-08T12:36:54.739Z,51.03
2022-10-08T12:42:08.501Z,45.47
2022-10-08T12:47:25.388Z,44.27
2022-10-08T12:52:33.654Z,43.28
2022-10-08T12:57:39.048Z,43.12
2022-10-08T13:02:43.725Z,42.20
2022-10-08T13:07:46.834Z,44.21
2022-10-08T13:13:03.767Z,41.29
2022-10-08T13:18:15.780Z,42.39
2022-10-08T13:23:33.821Z,41.51
2022-10-08T13:28:59.270Z,39.24
2022-10-08T13:34:05.050Z,38.71
2022-10-08T13:39:19.328Z,40.97
2022-10-08T13:44:22.332Z,38.50
2022-10-08T13:49:28.028Z,41.16
2022-10-08T13:54:33.419Z,39.81
2022-10-08T13:59:36.233Z,38.54
2022-10-08T14:04:40.468Z,43.60
2022-10-08T14:09:43.326Z,53.22
2022-10-08T14:14:46.379Z,56.60
2022-10-08T14:19:51.174Z,60.17
2022-10-08T14:24:54.009Z,65.26
2022-10-08T14:29:56.815Z,60.26
2022-10-08T14:35:00.993Z,53.87
2022-10-08T14:40:04.186Z,51.63
2022-10-08T14:45:07.889Z,47.92
2022-10-08T14:50:13.488Z,48.84
2022-10-08T14:55:16.507Z,48.71
2022-10-08T15:00:19.477Z,48.86
2022-10-08T15:05:23.622Z,47.92
2022-10-08T15:10:26.450Z,47.35
2022-10-08T15:15:29.247Z,48.74
2022-10-08T15:20:34.278Z,49.89
2022-10-08T15:25:37.434Z,48.80
2022-10-08T15:30:40.945Z,46.89
2022-10-08T15:35:45.073Z,47.16
2022-10-08T15:40:47.930Z,49.24
2022-10-08T15:45:50.774Z,49.47
2022-10-08T15:50:59.854Z,49.93
2022-10-08T15:56:02.839Z,50.29
2022-10-08T16:01:09.996Z,51.77
2022-10-08T16:06:16.941Z,54.24
2022-10-08T16:11:21.822Z,55.52
2022-10-08T16:16:24.624Z,56.81
2022-10-08T16:21:30.676Z,57.30
2022-10-08T16:26:35.391Z,57.48
2022-10-08T16:31:39.283Z,58.45
2022-10-08T16:36:44.126Z,58.44
2022-10-08T16:41:47.238Z,59.50
2022-10-08T16:46:51.712Z,59.34
2022-10-08T16:51:58.213Z,59.29
2022-10-08T16:57:01.091Z,61.11
2022-10-08T17:02:03.932Z,61.28
2022-10-08T17:07:08.616Z,61.94
2022-10-08T17:12:11.377Z,62.95
2022-10-08T17:17:14.544Z,63.41
2022-10-08T17:22:18.726Z,63.99
2022-10-08T17:27:21.484Z,63.99
2022-10-08T17:32:24.272Z,63.31
2022-10-08T17:37:28.369Z,63.58
2022-10-08T17:42:31.244Z,63.72
2022-10-08T17:47:33.984Z,64.92
2022-10-08T17:52:38.117Z,65.13
2022-10-08T17:57:40.892Z,65.88
2022-10-08T18:02:43.704Z,65.86
2022-10-08T18:07:47.815Z,66.82
2022-10-08T18:12:50.809Z,66.21
2022-10-08T18:17:53.739Z,66.48
2022-10-08T18:22:57.654Z,66.17
2022-10-08T18:28:00.354Z,66.50
2022-10-08T18:33:02.923Z,66.13
2022-10-08T18:38:06.991Z,66.57
2022-10-08T18:43:09.734Z,66.17
2022-10-08T18:48:12.437Z,66.21
2022-10-08T18:53:16.374Z,66.01
2022-10-08T18:58:19.092Z,66.53
2022-10-08T19:03:21.659Z,66.51
2022-10-08T19:08:25.806Z,67.06
2022-10-08T19:13:28.498Z,67.39
2022-10-08T19:18:31.260Z,67.27
2022-10-08T19:23:35.410Z,67.99
2022-10-08T19:28:39.734Z,68.07
2022-10-08T19:33:42.814Z,68.32
2022-10-08T19:38:52.371Z,68.84
2022-10-08T19:43:56.608Z,68.67
2022-10-08T19:49:01.530Z,68.41
2022-10-08T19:54:06.415Z,69.40
2022-10-08T19:59:11.523Z,69.13
2022-10-08T20:04:16.646Z,69.24
2022-10-08T20:09:21.077Z,70.16
2022-10-08T20:14:23.829Z,69.85
2022-10-08T20:19:26.412Z,69.87
2022-10-08T20:24:30.521Z,70.28
2022-10-08T20:29:33.965Z,70.35
2022-10-08T20:34:36.917Z,70.65
2022-10-08T20:39:41.098Z,70.82
2022-10-08T20:44:43.812Z,70.83
2022-10-08T20:49:46.402Z,71.22
2022-10-08T20:54:50.517Z,71.31
2022-10-08T20:59:54.148Z,71.27
2022-10-08T21:04:57.147Z,71.27
2022-10-08T21:10:01.575Z,71.49
2022-10-08T21:15:04.655Z,71.56
2022-10-08T21:20:08.508Z,71.98
2022-10-08T21:25:12.889Z,72.34
2022-10-08T21:30:15.785Z,73.04
2022-10-08T21:35:18.584Z,73.71
2022-10-08T21:40:22.564Z,74.30
2022-10-08T21:45:25.380Z,73.90
2022-10-08T21:50:28.203Z,73.95
2022-10-08T21:55:32.182Z,74.12
2022-10-08T22:00:35.124Z,74.26
2022-10-08T22:05:37.893Z,75.05
2022-10-08T22:10:41.788Z,75.68
2022-10-08T22:15:52.478Z,76.53
2022-10-08T22:20:55.730Z,75.65
2022-10-08T22:26:01.382Z,75.19
2022-10-08T22:31:06.222Z,75.05
2022-10-08T22:36:10.782Z,74.32
2022-10-08T22:41:17.124Z,73.37
2022-10-08T22:46:22.533Z,73.54
2022-10-08T22:51:25.410Z,73.81
2022-10-08T22:56:31.442Z,74.27
2022-10-08T23:01:34.213Z,74.24
2022-10-08T23:06:37.238Z,74.14
2022-10-08T23:11:41.365Z,76.14
2022-10-08T23:16:44.222Z,76.29
2022-10-08T23:21:47.022Z,76.34
2022-10-08T23:26:50.983Z,76.41
2022-10-08T23:31:54.504Z,76.75
2022-10-08T23:36:57.265Z,76.56
2022-10-08T23:42:01.446Z,76.20
2022-10-08T23:47:04.209Z,76.26
2022-10-08T23:52:06.767Z,76.55
2022-10-08T23:57:10.877Z,76.63
